Weather at Sipitang Airport

Public forecast

Using degrees Celsius for public forecast. Weather courtesy of forecast.io.

Closest aviation weather report (METAR) to Sipitang Airport

Closest report is Labuan Airport, 22.2 nm (41.1 km) NW. Retrieved 2022/01/16 10:00 UTC (18 minutes ago):

WBKL 161000Z 06005KT 270V080 9999 FEW015 28/24 Q1010

Closest aviation forecast (TAF) to Sipitang Airport

Closest forecast is Labuan Airport, 22.2 nm (41.1 km) NW. Retrieved 2022/01/16 06:00 UTC (4 hours ago):

TAF WBKL 160500Z 1606/1706 08010KT 9999 FEW014